Time;durP1;ratioP1;P1;durP2;ratioP2;P2;SDS_P1;SDS_P2;PMS_P1;PMS_P2;Temp;Humidity;BMP_temperature;BMP_pressure;BME280_temperature;BME280_humidity;BME280_pressure;Samples;Min_cycle;Max_cycle;Signal;HPM_P1;HPM_P2
2023/09/20 00:01:26;;;;;;;9.45;3.80;;;16.90;99.90;;;;;;5010900;28;20050;-63
2023/09/20 00:03:53;;;;;;;8.07;3.63;;;17.00;99.90;;;;;;5010534;28;20046;-63
2023/09/20 00:06:19;;;;;;;7.75;4.00;;;16.90;99.90;;;;;;5010361;28;20112;-65
2023/09/20 00:08:45;;;;;;;8.70;4.10;;;17.00;99.90;;;;;;5010384;28;20107;-62
2023/09/20 00:11:15;;;;;;;10.32;3.90;;;17.10;99.90;;;;;;5010458;28;20064;-61
2023/09/20 00:13:42;;;;;;;7.68;4.05;;;17.10;99.90;;;;;;5010583;28;20064;-62
2023/09/20 00:16:09;;;;;;;7.03;3.55;;;17.20;99.90;;;;;;5010107;28;20053;-63
2023/09/20 00:18:36;;;;;;;8.13;4.18;;;17.20;99.90;;;;;;5010499;28;20116;-63
2023/09/20 00:21:04;;;;;;;10.55;4.22;;;17.10;99.90;;;;;;5010544;28;20054;-63
2023/09/20 00:23:30;;;;;;;6.47;3.70;;;17.20;99.90;;;;;;5009853;28;20056;-64
2023/09/20 00:25:57;;;;;;;8.68;4.13;;;17.20;99.90;;;;;;5010129;28;20045;-64
2023/09/20 00:28:23;;;;;;;9.90;4.00;;;17.20;99.90;;;;;;5009930;28;20069;-63
2023/09/20 00:30:52;;;;;;;9.18;3.75;;;17.10;99.90;;;;;;5010357;28;20455;-64
2023/09/20 00:33:18;;;;;;;8.85;3.47;;;17.20;99.90;;;;;;5009610;28;20419;-63
2023/09/20 00:35:44;;;;;;;8.43;3.88;;;17.30;99.90;;;;;;5010211;28;20050;-64
2023/09/20 00:38:16;;;;;;;8.07;4.03;;;17.30;99.90;;;;;;5009386;28;20056;-64
2023/09/20 00:40:43;;;;;;;8.80;3.75;;;17.30;99.90;;;;;;5010116;28;20054;-64
2023/09/20 00:43:13;;;;;;;9.35;4.10;;;17.20;99.90;;;;;;5009580;28;20114;-63
2023/09/20 00:45:40;;;;;;;9.32;3.78;;;17.30;99.90;;;;;;5010060;28;20057;-63
2023/09/20 00:48:08;;;;;;;7.93;4.10;;;17.30;99.90;;;;;;5009626;28;20058;-64
2023/09/20 00:50:35;;;;;;;8.10;4.45;;;17.30;99.90;;;;;;5010003;28;20045;-64
2023/09/20 00:53:06;;;;;;;8.77;4.50;;;17.40;99.90;;;;;;5009987;28;20049;-64
2023/09/20 00:55:36;;;;;;;9.07;4.00;;;17.30;99.90;;;;;;5010853;28;20165;-63
2023/09/20 00:58:07;;;;;;;8.07;3.95;;;17.40;99.90;;;;;;5009551;28;20076;-64
2023/09/20 01:00:37;;;;;;;9.68;3.97;;;17.40;99.90;;;;;;5009805;28;20050;-63
2023/09/20 01:03:05;;;;;;;7.13;3.72;;;17.30;99.90;;;;;;5009657;28;20045;-64
2023/09/20 01:05:36;;;;;;;7.38;3.47;;;17.30;99.90;;;;;;5009274;28;20049;-64
2023/09/20 01:08:04;;;;;;;8.52;3.85;;;17.30;99.90;;;;;;5008792;28;20050;-63
2023/09/20 01:10:31;;;;;;;9.05;4.03;;;17.40;99.90;;;;;;5009555;28;20080;-64
2023/09/20 01:12:59;;;;;;;9.10;3.65;;;17.30;99.90;;;;;;5009004;28;20062;-62
2023/09/20 01:15:29;;;;;;;10.73;3.83;;;17.40;99.90;;;;;;5009425;28;20379;-64
2023/09/20 01:17:57;;;;;;;7.95;3.25;;;17.40;99.90;;;;;;4991411;28;20049;-63
2023/09/20 01:20:27;;;;;;;9.63;3.42;;;17.30;99.90;;;;;;5010699;28;20061;-63
2023/09/20 01:22:55;;;;;;;9.30;3.80;;;17.50;99.90;;;;;;5013513;28;20128;-63
2023/09/20 01:25:23;;;;;;;9.13;3.90;;;17.40;99.90;;;;;;5013420;28;20053;-64
2023/09/20 01:27:55;;;;;;;9.35;3.92;;;17.40;99.90;;;;;;5013527;28;20050;-64
2023/09/20 01:30:25;;;;;;;8.40;3.78;;;17.40;99.90;;;;;;5013546;28;20061;-64
2023/09/20 01:32:55;;;;;;;8.98;3.47;;;17.40;99.90;;;;;;5013683;28;20299;-64
2023/09/20 01:35:23;;;;;;;8.65;3.20;;;17.40;99.90;;;;;;5013568;28;20422;-63
2023/09/20 01:37:50;;;;;;;7.97;3.45;;;17.30;99.90;;;;;;5012610;28;20060;-64
2023/09/20 01:40:16;;;;;;;5.95;3.33;;;17.30;99.90;;;;;;5013136;28;20515;-63
2023/09/20 01:42:43;;;;;;;6.45;3.25;;;17.40;99.90;;;;;;5012860;28;20050;-63
2023/09/20 01:45:18;;;;;;;9.93;3.40;;;17.40;99.90;;;;;;5013138;28;20064;-64
2023/09/20 01:47:49;;;;;;;8.73;3.50;;;17.30;99.90;;;;;;5012502;28;20053;-64
2023/09/20 01:50:20;;;;;;;7.05;3.58;;;17.30;99.90;;;;;;4995727;28;20053;-64
2023/09/20 01:52:53;;;;;;;8.88;3.67;;;17.40;99.90;;;;;;4995121;28;20443;-64
2023/09/20 01:55:21;;;;;;;6.90;3.53;;;17.40;99.90;;;;;;5013125;28;20431;-64
2023/09/20 01:57:52;;;;;;;7.50;3.45;;;17.50;99.90;;;;;;5012882;28;20092;-63
2023/09/20 02:00:24;;;;;;;6.88;3.00;;;17.50;99.90;;;;;;5013407;28;20054;-63
2023/09/20 02:02:54;;;;;;;9.13;3.58;;;17.50;99.90;;;;;;5013049;28;20483;-65
2023/09/20 02:05:23;;;;;;;9.60;3.78;;;17.50;99.90;;;;;;5013471;28;20074;-63
2023/09/20 02:07:52;;;;;;;6.53;3.15;;;17.40;99.90;;;;;;5013058;28;20259;-63
2023/09/20 02:10:19;;;;;;;6.72;3.78;;;17.40;99.90;;;;;;5012992;28;20065;-66
2023/09/20 02:12:59;;;;;;;5.63;3.70;;;17.50;99.90;;;;;;5012761;28;20054;-64
2023/09/20 02:15:27;;;;;;;10.55;3.53;;;17.40;99.90;;;;;;4995981;28;20046;-64
2023/09/20 02:17:54;;;;;;;7.78;3.47;;;17.50;99.90;;;;;;4995532;28;20322;-65
2023/09/20 02:20:23;;;;;;;7.95;3.70;;;17.40;99.90;;;;;;4995733;28;20053;-63
2023/09/20 02:22:51;;;;;;;9.63;3.83;;;17.40;99.90;;;;;;4995540;28;20097;-64
2023/09/20 02:25:20;;;;;;;9.27;3.45;;;17.50;99.90;;;;;;4995350;28;20360;-66
2023/09/20 02:27:54;;;;;;;8.63;3.15;;;17.40;99.90;;;;;;4994978;28;20457;-63
2023/09/20 02:30:24;;;;;;;6.95;3.17;;;17.40;99.90;;;;;;4995692;28;20077;-64
2023/09/20 02:32:55;;;;;;;9.35;3.70;;;17.50;99.90;;;;;;4995052;28;20391;-65
2023/09/20 02:35:22;;;;;;;10.82;3.28;;;17.40;99.90;;;;;;4995209;28;20429;-63
2023/09/20 02:37:50;;;;;;;9.85;4.03;;;17.40;99.90;;;;;;4994872;28;20054;-64
2023/09/20 02:40:17;;;;;;;6.00;3.10;;;17.30;99.90;;;;;;4995024;28;20045;-65
2023/09/20 02:42:45;;;;;;;10.80;4.18;;;17.40;99.90;;;;;;4995043;28;20053;-63
2023/09/20 02:45:13;;;;;;;7.70;3.88;;;17.40;99.90;;;;;;4995026;28;20053;-66
2023/09/20 02:47:41;;;;;;;6.47;3.67;;;17.30;99.90;;;;;;4994625;28;20060;-63
2023/09/20 02:50:10;;;;;;;5.47;3.60;;;17.30;99.90;;;;;;4995133;28;20050;-64
2023/09/20 02:52:37;;;;;;;8.65;3.70;;;17.50;99.90;;;;;;4994650;28;20050;-64
2023/09/20 02:55:06;;;;;;;10.40;4.18;;;17.30;99.90;;;;;;4994828;28;20113;-64
2023/09/20 02:57:35;;;;;;;8.98;3.97;;;17.30;99.90;;;;;;4995012;28;20049;-63
2023/09/20 03:00:06;;;;;;;8.32;3.65;;;17.30;99.90;;;;;;4992154;28;20141;-64
2023/09/20 03:02:32;;;;;;;7.82;3.55;;;17.30;99.90;;;;;;4994780;28;20073;-63
2023/09/20 03:04:59;;;;;;;8.02;3.58;;;17.30;99.90;;;;;;4994991;28;20089;-64
2023/09/20 03:07:26;;;;;;;10.68;3.75;;;17.20;99.90;;;;;;4994716;28;20443;-65
2023/09/20 03:09:52;;;;;;;10.73;4.00;;;17.20;99.90;;;;;;4994898;28;20049;-62
2023/09/20 03:12:19;;;;;;;9.13;4.00;;;17.20;99.90;;;;;;4994839;28;20046;-64
2023/09/20 03:14:45;;;;;;;8.10;4.05;;;17.10;99.90;;;;;;4994258;28;20065;-62
2023/09/20 03:17:12;;;;;;;7.13;3.33;;;17.10;99.90;;;;;;4994108;28;20053;-65
2023/09/20 03:19:38;;;;;;;8.55;4.28;;;17.00;99.90;;;;;;4994618;28;20057;-65
2023/09/20 03:22:06;;;;;;;9.93;3.55;;;17.00;99.90;;;;;;4994273;28;20045;-64
2023/09/20 03:24:35;;;;;;;5.25;3.42;;;16.90;99.90;;;;;;4994473;28;20462;-62
2023/09/20 03:27:02;;;;;;;9.55;3.97;;;16.90;99.90;;;;;;4993903;28;20056;-64
2023/09/20 03:29:29;;;;;;;7.30;3.50;;;16.90;99.90;;;;;;4994334;28;20038;-63
2023/09/20 03:31:56;;;;;;;9.27;4.10;;;16.80;99.90;;;;;;4978066;28;20438;-64
2023/09/20 03:34:22;;;;;;;9.07;3.53;;;16.80;99.90;;;;;;4993894;28;20053;-64
2023/09/20 03:36:50;;;;;;;7.18;3.95;;;16.80;99.90;;;;;;4994099;28;20073;-63
2023/09/20 03:39:20;;;;;;;10.73;4.28;;;16.70;99.90;;;;;;4994377;28;20407;-64
2023/09/20 03:41:47;;;;;;;7.65;3.78;;;16.60;99.90;;;;;;4994788;28;20096;-63
2023/09/20 03:44:14;;;;;;;9.20;3.60;;;16.70;99.90;;;;;;4993016;28;20085;-64
2023/09/20 03:46:41;;;;;;;7.05;3.92;;;16.70;99.90;;;;;;4993709;28;20054;-64
2023/09/20 03:49:07;;;;;;;10.23;4.00;;;16.60;99.90;;;;;;4994358;28;20104;-64
2023/09/20 03:51:33;;;;;;;7.82;3.95;;;16.60;99.90;;;;;;5011539;28;20193;-64
2023/09/20 03:53:59;;;;;;;8.40;4.30;;;16.60;99.90;;;;;;4993462;28;20065;-64
2023/09/20 03:56:26;;;;;;;10.52;3.78;;;16.60;99.90;;;;;;4993515;28;20056;-64
2023/09/20 03:58:52;;;;;;;8.38;3.83;;;16.60;99.90;;;;;;4994264;28;20046;-62
2023/09/20 04:01:20;;;;;;;5.72;3.03;;;16.50;99.90;;;;;;4994009;28;20434;-64
2023/09/20 04:03:46;;;;;;;9.70;3.55;;;16.50;99.90;;;;;;4993834;28;20053;-64
2023/09/20 04:06:13;;;;;;;7.10;4.10;;;16.50;99.90;;;;;;4993456;28;20050;-63
2023/09/20 04:08:39;;;;;;;8.88;4.05;;;16.50;99.90;;;;;;4994210;28;20477;-64
2023/09/20 04:11:06;;;;;;;7.25;3.67;;;16.50;99.90;;;;;;4993850;28;20064;-63
2023/09/20 04:13:32;;;;;;;6.50;3.85;;;16.40;99.90;;;;;;4993365;28;20490;-64
2023/09/20 04:15:59;;;;;;;8.57;4.05;;;16.50;99.90;;;;;;4994052;28;20058;-62
2023/09/20 04:18:26;;;;;;;9.18;3.30;;;16.40;99.90;;;;;;4994737;28;20435;-63
2023/09/20 04:20:52;;;;;;;8.15;3.95;;;16.50;99.90;;;;;;4993744;28;20052;-64
2023/09/20 04:23:18;;;;;;;7.03;3.50;;;16.60;99.90;;;;;;4993368;28;20184;-64
2023/09/20 04:25:45;;;;;;;10.77;4.05;;;16.40;99.90;;;;;;4993648;28;20062;-63
2023/09/20 04:28:11;;;;;;;8.52;3.47;;;16.40;99.90;;;;;;4993547;28;20542;-66
2023/09/20 04:30:38;;;;;;;11.85;3.75;;;16.40;99.90;;;;;;4993454;28;20069;-63
2023/09/20 04:33:07;;;;;;;5.95;3.30;;;16.40;99.90;;;;;;4993264;28;20057;-63
2023/09/20 04:35:34;;;;;;;7.82;3.75;;;16.40;99.90;;;;;;4993428;28;20439;-64
2023/09/20 04:38:00;;;;;;;9.77;3.90;;;16.40;99.90;;;;;;4993149;28;20065;-64
2023/09/20 04:40:27;;;;;;;8.25;3.40;;;16.30;99.90;;;;;;5010767;28;20042;-63
2023/09/20 04:42:53;;;;;;;9.20;3.60;;;16.40;99.90;;;;;;4992999;28;20394;-64
2023/09/20 04:45:20;;;;;;;9.27;3.60;;;16.50;99.90;;;;;;4992592;28;20056;-64
2023/09/20 04:47:46;;;;;;;8.85;3.90;;;16.40;99.90;;;;;;4978217;28;20379;-63
2023/09/20 04:50:13;;;;;;;8.85;3.63;;;16.40;99.90;;;;;;4997323;28;20058;-62
2023/09/20 04:52:41;;;;;;;8.82;3.88;;;16.40;99.90;;;;;;4991247;28;20046;-63
2023/09/20 04:55:11;;;;;;;6.20;3.65;;;16.40;99.90;;;;;;4990247;28;20121;-63
2023/09/20 04:57:39;;;;;;;7.07;3.55;;;16.40;99.90;;;;;;5005714;28;20042;-63
2023/09/20 05:00:07;;;;;;;7.03;3.58;;;16.30;99.90;;;;;;5009116;28;20057;-63
2023/09/20 05:02:33;;;;;;;6.60;3.70;;;16.30;99.90;;;;;;5006450;28;20045;-63
2023/09/20 05:05:00;;;;;;;7.82;3.20;;;16.30;99.90;;;;;;5009076;28;20692;-63
2023/09/20 05:07:27;;;;;;;8.02;3.95;;;16.30;99.90;;;;;;4992475;28;20050;-63
2023/09/20 05:09:53;;;;;;;8.05;3.67;;;16.30;99.90;;;;;;5010505;28;20046;-63
2023/09/20 05:12:19;;;;;;;6.05;3.20;;;16.30;99.90;;;;;;5010061;28;20054;-63
2023/09/20 05:14:46;;;;;;;9.15;3.67;;;16.30;99.90;;;;;;5009311;28;20046;-61
2023/09/20 05:17:14;;;;;;;8.82;3.67;;;16.30;99.90;;;;;;4992246;28;20046;-63
2023/09/20 05:19:40;;;;;;;6.68;3.42;;;16.40;99.90;;;;;;5010286;28;20120;-63
2023/09/20 05:22:06;;;;;;;8.68;3.35;;;16.30;99.90;;;;;;5010059;28;20434;-62
2023/09/20 05:24:33;;;;;;;8.23;3.47;;;16.30;99.90;;;;;;5008705;28;20125;-64
2023/09/20 05:26:59;;;;;;;7.90;3.33;;;16.40;99.90;;;;;;5009434;28;20046;-63
2023/09/20 05:29:25;;;;;;;8.45;3.30;;;16.30;99.90;;;;;;5009504;28;20446;-63
2023/09/20 05:31:52;;;;;;;7.38;3.30;;;16.40;99.90;;;;;;4992488;28;20057;-63
2023/09/20 05:34:18;;;;;;;7.13;3.60;;;16.30;99.90;;;;;;5008667;28;20064;-61
2023/09/20 05:36:45;;;;;;;10.05;3.70;;;16.40;99.90;;;;;;5008868;28;20054;-61
2023/09/20 05:39:12;;;;;;;6.28;3.20;;;16.40;99.90;;;;;;5010134;28;20308;-63
2023/09/20 05:41:39;;;;;;;5.38;3.45;;;16.30;99.90;;;;;;5009760;28;20060;-61
2023/09/20 05:44:06;;;;;;;6.60;3.38;;;16.40;99.90;;;;;;5008856;28;20050;-63
2023/09/20 05:46:32;;;;;;;6.53;3.45;;;16.40;99.90;;;;;;5008964;28;20053;-63
2023/09/20 05:48:58;;;;;;;8.32;3.75;;;16.50;99.90;;;;;;4991924;28;20054;-64
2023/09/20 05:51:26;;;;;;;7.78;3.25;;;16.50;99.90;;;;;;5009112;28;20394;-64
2023/09/20 05:53:52;;;;;;;5.95;3.42;;;16.50;99.90;;;;;;5009049;28;20053;-64
2023/09/20 05:56:19;;;;;;;7.03;3.58;;;16.60;99.90;;;;;;5009086;28;20418;-64
2023/09/20 05:58:45;;;;;;;9.45;4.00;;;16.60;99.90;;;;;;5009549;28;20080;-63
2023/09/20 06:01:12;;;;;;;7.63;3.20;;;16.60;99.90;;;;;;5009495;28;20462;-66
2023/09/20 06:03:39;;;;;;;10.05;3.67;;;16.50;99.90;;;;;;5009290;28;20077;-63
2023/09/20 06:06:07;;;;;;;4.68;3.40;;;16.60;99.90;;;;;;5009334;28;20260;-63
2023/09/20 06:08:37;;;;;;;6.55;3.45;;;16.60;99.90;;;;;;5013055;28;20056;-63
2023/09/20 06:11:04;;;;;;;6.75;3.08;;;16.80;99.90;;;;;;5013046;28;20481;-63
2023/09/20 06:13:33;;;;;;;6.65;3.38;;;16.80;99.90;;;;;;5012575;28;20046;-63
2023/09/20 06:15:59;;;;;;;7.75;3.60;;;17.00;99.90;;;;;;5012683;28;20109;-63
2023/09/20 06:18:25;;;;;;;7.68;3.63;;;17.40;99.90;;;;;;5012744;28;20050;-64
2023/09/20 06:20:52;;;;;;;4.95;3.25;;;17.80;99.90;;;;;;5012936;28;20061;-64
2023/09/20 06:23:18;;;;;;;7.15;3.25;;;18.00;99.90;;;;;;5012780;28;20053;-62
2023/09/20 06:25:47;;;;;;;7.88;3.55;;;18.30;99.90;;;;;;5012524;28;20061;-64
2023/09/20 06:28:15;;;;;;;7.45;3.25;;;18.60;99.90;;;;;;5012991;28;20054;-64
2023/09/20 06:30:41;;;;;;;9.70;3.60;;;18.90;99.90;;;;;;5012515;28;20054;-65
2023/09/20 06:33:08;;;;;;;7.18;3.50;;;19.10;99.90;;;;;;5011861;28;20085;-64
2023/09/20 06:35:41;;;;;;;6.32;3.13;;;19.30;99.90;;;;;;5011421;28;20137;-63
2023/09/20 06:38:09;;;;;;;8.07;3.92;;;19.20;99.90;;;;;;5011871;28;20057;-64
2023/09/20 06:40:38;;;;;;;7.50;3.50;;;19.20;99.90;;;;;;5012450;28;20050;-64
2023/09/20 06:43:08;;;;;;;5.88;3.38;;;19.00;99.90;;;;;;5011581;28;20050;-64
2023/09/20 06:45:35;;;;;;;8.18;3.30;;;18.70;99.90;;;;;;5011880;28;20050;-62
2023/09/20 06:48:02;;;;;;;7.22;3.67;;;18.50;99.90;;;;;;5012135;28;20058;-64
2023/09/20 06:50:30;;;;;;;6.18;3.40;;;18.40;99.90;;;;;;5012036;28;20053;-64
2023/09/20 06:52:56;;;;;;;6.75;3.80;;;18.30;99.90;;;;;;5011804;28;20050;-63
2023/09/20 06:55:25;;;;;;;12.43;3.58;;;18.30;99.90;;;;;;5011589;28;20339;-63
2023/09/20 06:57:52;;;;;;;24.45;6.32;;;18.10;99.90;;;;;;5012628;28;20108;-63
2023/09/20 07:00:21;;;;;;;9.63;3.88;;;18.00;99.90;;;;;;5012362;28;20037;-63
2023/09/20 07:02:49;;;;;;;8.98;3.38;;;18.00;99.90;;;;;;5011719;28;20046;-65
2023/09/20 07:05:17;;;;;;;8.32;3.30;;;17.90;99.90;;;;;;5011933;28;20058;-63
2023/09/20 07:07:46;;;;;;;11.32;3.70;;;18.00;99.90;;;;;;5011366;28;20050;-63
2023/09/20 07:10:17;;;;;;;8.70;3.38;;;18.00;99.90;;;;;;5011571;28;20401;-64
2023/09/20 07:12:45;;;;;;;9.77;3.60;;;17.90;99.90;;;;;;5011106;28;20060;-63
2023/09/20 07:15:21;;;;;;;6.80;3.53;;;18.00;99.90;;;;;;5011525;28;20427;-64
2023/09/20 07:17:58;;;;;;;5.70;3.50;;;18.00;99.90;;;;;;5010797;28;20050;-64
2023/09/20 07:20:25;;;;;;;5.10;3.05;;;18.20;99.90;;;;;;4994252;28;20045;-65
2023/09/20 07:22:51;;;;;;;6.80;3.28;;;18.30;99.90;;;;;;5011522;28;20108;-64
2023/09/20 07:25:21;;;;;;;5.10;3.38;;;18.40;99.90;;;;;;5011179;28;20485;-64
2023/09/20 07:27:48;;;;;;;8.55;3.67;;;18.50;99.90;;;;;;5011223;28;20077;-63
2023/09/20 07:30:22;;;;;;;8.30;3.97;;;18.70;99.90;;;;;;5011248;28;20057;-63
2023/09/20 07:32:50;;;;;;;6.95;3.67;;;18.70;99.90;;;;;;5011012;28;20100;-63
2023/09/20 07:35:25;;;;;;;10.02;3.70;;;18.70;99.90;;;;;;5011094;28;20057;-64
2023/09/20 07:37:56;;;;;;;6.35;3.60;;;18.70;99.90;;;;;;5011196;28;20056;-62
2023/09/20 07:40:29;;;;;;;9.55;3.58;;;18.60;99.90;;;;;;5011323;28;20061;-64
2023/09/20 07:42:59;;;;;;;8.73;3.30;;;18.50;99.90;;;;;;5010653;28;20623;-64
2023/09/20 07:45:27;;;;;;;6.15;4.32;;;18.60;99.90;;;;;;5010688;28;20046;-64
2023/09/20 07:47:53;;;;;;;9.35;4.20;;;18.50;99.90;;;;;;5011094;28;20050;-64
2023/09/20 07:50:19;;;;;;;7.57;4.10;;;18.50;99.90;;;;;;5011137;28;20045;-63
2023/09/20 07:52:45;;;;;;;8.15;3.70;;;18.40;99.90;;;;;;5010818;28;20073;-64
2023/09/20 07:55:12;;;;;;;6.18;3.72;;;18.40;99.90;;;;;;4993283;28;20451;-64
2023/09/20 07:57:39;;;;;;;7.22;4.28;;;18.50;99.90;;;;;;5010646;28;20046;-65
2023/09/20 08:00:08;;;;;;;10.05;4.28;;;18.50;99.90;;;;;;5010758;28;20064;-63
2023/09/20 08:02:35;;;;;;;6.18;3.80;;;18.40;99.90;;;;;;5010793;28;20057;-63
2023/09/20 08:05:01;;;;;;;7.75;4.10;;;18.40;99.90;;;;;;5010664;28;20069;-64
2023/09/20 08:07:28;;;;;;;7.25;4.13;;;18.50;99.90;;;;;;5009683;28;20459;-63
2023/09/20 08:09:54;;;;;;;9.13;4.20;;;18.30;99.90;;;;;;5010530;28;20046;-65
2023/09/20 08:12:21;;;;;;;9.48;4.25;;;18.40;99.90;;;;;;5010796;28;20058;-63
2023/09/20 08:14:47;;;;;;;8.20;3.90;;;18.30;99.90;;;;;;5009948;28;20045;-63
2023/09/20 08:19:58;;;;;;;6.85;3.65;;;18.20;99.90;;;;;;5011236;28;20046;-63
2023/09/20 08:22:24;;;;;;;6.47;3.78;;;18.20;99.90;;;;;;5010559;28;20046;-64
2023/09/20 09:00:46;;;;;;;5.15;3.75;;;18.50;99.90;;;;;;5010034;28;20101;-63
2023/09/20 09:03:13;;;;;;;10.95;4.32;;;18.50;99.90;;;;;;5009726;28;20042;-63
2023/09/20 09:05:40;;;;;;;6.88;3.95;;;18.50;99.90;;;;;;5009544;28;20042;-62
2023/09/20 09:08:06;;;;;;;7.25;3.40;;;18.60;99.90;;;;;;5009592;28;20371;-63
2023/09/20 09:10:32;;;;;;;5.32;3.25;;;18.70;99.90;;;;;;5009689;28;20482;-62
2023/09/20 09:12:59;;;;;;;5.60;3.80;;;18.70;99.90;;;;;;5009452;28;20085;-63
2023/09/20 09:15:27;;;;;;;6.95;3.50;;;18.70;99.90;;;;;;5009406;28;20065;-63
2023/09/20 09:17:53;;;;;;;5.90;3.17;;;18.80;99.90;;;;;;5009930;28;20046;-63
2023/09/20 09:20:20;;;;;;;5.28;3.33;;;18.80;99.90;;;;;;5009940;28;20057;-63
2023/09/20 09:22:49;;;;;;;6.28;3.63;;;18.90;99.90;;;;;;5009401;28;20050;-64
2023/09/20 09:25:24;;;;;;;4.35;3.28;;;19.00;99.90;;;;;;5009212;28;20058;-62
2023/09/20 09:27:50;;;;;;;6.82;3.97;;;19.20;99.90;;;;;;5009600;28;20489;-63
2023/09/20 09:30:17;;;;;;;5.90;3.33;;;19.20;99.90;;;;;;5009707;28;20105;-64
2023/09/20 09:32:47;;;;;;;6.75;3.63;;;19.30;99.90;;;;;;5009355;28;20784;-63
2023/09/20 09:35:19;;;;;;;4.68;2.78;;;19.30;99.90;;;;;;5008892;28;20091;-63
2023/09/20 09:37:45;;;;;;;6.28;3.33;;;19.40;99.90;;;;;;5009378;28;20092;-63
2023/09/20 09:40:12;;;;;;;4.88;3.45;;;19.40;99.90;;;;;;5009727;28;20117;-63
2023/09/20 09:42:40;;;;;;;7.10;3.47;;;19.30;99.90;;;;;;5012415;28;20065;-64
2023/09/20 09:45:07;;;;;;;7.03;3.40;;;19.30;99.90;;;;;;5012884;28;20050;-64
2023/09/20 09:47:35;;;;;;;5.13;3.20;;;19.30;99.90;;;;;;5013184;28;20049;-64
2023/09/20 09:50:06;;;;;;;4.85;3.13;;;19.30;99.90;;;;;;5012215;28;20124;-62
2023/09/20 09:52:36;;;;;;;5.72;3.60;;;19.40;99.90;;;;;;5013051;28;20053;-61
2023/09/20 09:55:03;;;;;;;4.28;3.08;;;19.40;99.90;;;;;;5012700;28;20046;-63
2023/09/20 09:57:29;;;;;;;5.00;2.70;;;19.40;99.90;;;;;;5012983;28;20417;-63
2023/09/20 09:59:56;;;;;;;5.47;2.63;;;19.30;99.90;;;;;;5012635;28;20336;-63
2023/09/20 10:02:30;;;;;;;6.85;2.83;;;19.30;99.90;;;;;;5013017;28;20053;-64
2023/09/20 10:05:02;;;;;;;5.88;2.90;;;19.50;99.90;;;;;;5012849;28;20045;-64
2023/09/20 10:07:33;;;;;;;6.25;3.10;;;19.50;99.90;;;;;;5012844;28;20058;-63
2023/09/20 10:10:12;;;;;;;;;;;19.60;99.90;;;;;;5013369;28;20054;-62
2023/09/20 10:12:40;;;;;;;8.00;3.33;;;19.60;99.90;;;;;;5012503;28;20266;-63
2023/09/20 10:15:07;;;;;;;5.68;2.78;;;19.60;99.90;;;;;;5012208;28;20050;-63
2023/09/20 10:17:34;;;;;;;6.15;3.05;;;19.60;99.90;;;;;;4995578;28;20053;-63
2023/09/20 10:20:07;;;;;;;5.53;3.05;;;19.60;99.90;;;;;;5012645;28;20445;-62
2023/09/20 10:22:41;;;;;;;6.03;3.08;;;19.60;99.90;;;;;;5012621;28;20113;-64
2023/09/20 10:25:28;;;;;;;7.38;2.90;;;19.60;99.90;;;;;;5012017;28;20057;-63
2023/09/20 10:27:54;;;;;;;5.03;2.72;;;19.50;99.90;;;;;;4994848;28;20164;-63
2023/09/20 10:30:21;;;;;;;6.53;2.90;;;19.50;99.90;;;;;;5012724;28;20057;-63
2023/09/20 10:32:47;;;;;;;4.63;2.75;;;19.50;99.90;;;;;;5012350;28;20462;-63
2023/09/20 10:35:19;;;;;;;6.00;2.60;;;19.50;99.90;;;;;;5011640;28;20056;-63
2023/09/20 10:37:59;;;;;;;6.93;3.00;;;19.50;99.90;;;;;;4994709;28;20058;-64
2023/09/20 10:40:44;;;;;;;5.18;3.00;;;19.50;99.90;;;;;;5012307;28;20053;-64
2023/09/20 10:43:13;;;;;;;5.28;2.90;;;19.50;99.90;;;;;;5011983;28;20169;-63
2023/09/20 10:45:41;;;;;;;3.70;2.70;;;19.40;99.90;;;;;;5011910;28;20057;-63
2023/09/20 10:48:12;;;;;;;4.18;2.90;;;19.40;99.90;;;;;;5011966;28;20496;-63
2023/09/20 10:50:47;;;;;;;5.10;2.63;;;19.40;99.90;;;;;;5012177;28;20338;-62
2023/09/20 10:53:13;;;;;;;5.60;2.92;;;19.30;99.90;;;;;;5010982;28;20086;-64
2023/09/20 10:55:40;;;;;;;6.53;3.15;;;19.40;99.90;;;;;;5011357;28;20042;-63
2023/09/20 10:58:07;;;;;;;4.63;2.70;;;19.40;99.90;;;;;;5011989;28;20395;-64
2023/09/20 11:00:35;;;;;;;6.15;2.80;;;19.40;99.90;;;;;;5012083;28;20068;-64
2023/09/20 11:03:08;;;;;;;5.80;2.67;;;19.50;99.90;;;;;;5011678;28;20362;-63
2023/09/20 11:05:35;;;;;;;5.28;3.22;;;19.40;99.90;;;;;;5011552;28;20053;-63
2023/09/20 11:08:08;;;;;;;4.10;2.47;;;19.50;99.90;;;;;;5011937;28;20364;-64
2023/09/20 11:10:35;;;;;;;4.72;3.33;;;19.50;99.90;;;;;;5011957;28;20054;-64
2023/09/20 11:13:06;;;;;;;4.72;3.13;;;19.60;99.90;;;;;;5011446;28;20053;-62
2023/09/20 11:15:40;;;;;;;4.82;3.20;;;19.70;99.90;;;;;;4993720;28;20493;-62
2023/09/20 11:18:14;;;;;;;5.60;3.78;;;19.80;99.90;;;;;;5011761;28;20056;-63
2023/09/20 11:20:41;;;;;;;5.03;3.03;;;20.00;99.90;;;;;;5011605;28;20042;-65
2023/09/20 11:23:09;;;;;;;7.50;3.53;;;20.10;99.90;;;;;;5011167;28;20050;-63
2023/09/20 11:25:36;;;;;;;4.72;3.05;;;20.10;99.90;;;;;;5011183;28;20054;-64
2023/09/20 11:28:07;;;;;;;6.68;3.38;;;20.20;99.90;;;;;;5011655;28;20120;-64
2023/09/20 11:30:34;;;;;;;6.40;3.35;;;20.20;99.90;;;;;;5011146;28;20184;-63
2023/09/20 11:33:01;;;;;;;6.32;3.25;;;20.20;99.90;;;;;;5010925;28;20061;-64
2023/09/20 11:35:36;;;;;;;7.28;3.72;;;20.20;99.90;;;;;;5010888;28;20057;-64
2023/09/20 11:38:04;;;;;;;7.25;3.45;;;20.30;99.90;;;;;;5011038;28;20065;-64
2023/09/20 11:40:41;;;;;;;4.68;2.78;;;20.30;99.90;;;;;;5010924;28;20367;-62
2023/09/20 11:43:09;;;;;;;6.72;3.47;;;20.40;99.90;;;;;;5010845;28;20046;-64
2023/09/20 11:45:41;;;;;;;6.22;3.20;;;20.50;99.90;;;;;;5010819;28;20046;-62
2023/09/20 11:48:15;;;;;;;5.38;3.28;;;20.60;99.90;;;;;;5010558;28;20422;-63
2023/09/20 11:50:43;;;;;;;5.22;3.20;;;20.50;99.90;;;;;;5010806;28;20061;-62
2023/09/20 11:53:14;;;;;;;6.53;3.45;;;20.60;99.90;;;;;;5010432;28;20046;-63
2023/09/20 11:55:42;;;;;;;6.78;3.60;;;20.60;99.90;;;;;;5010419;28;20335;-62
2023/09/20 11:58:09;;;;;;;7.68;3.45;;;20.60;99.90;;;;;;5011086;28;20181;-63
2023/09/20 12:00:36;;;;;;;6.75;3.70;;;20.60;99.90;;;;;;5011014;28;20087;-64
2023/09/20 12:03:03;;;;;;;9.60;4.15;;;20.60;99.90;;;;;;5010382;28;20046;-62
2023/09/20 12:05:29;;;;;;;7.45;3.42;;;20.60;99.90;;;;;;5009700;28;20046;-63
2023/09/20 12:07:58;;;;;;;8.07;4.03;;;20.60;99.90;;;;;;5010241;28;20050;-64
2023/09/20 12:10:28;;;;;;;6.78;3.58;;;20.60;99.90;;;;;;5010359;28;20105;-64
2023/09/20 12:12:55;;;;;;;9.20;3.83;;;20.80;99.90;;;;;;5010496;28;20061;-64
2023/09/20 12:15:22;;;;;;;7.30;3.65;;;20.80;99.90;;;;;;5010006;28;20467;-63
2023/09/20 12:17:51;;;;;;;6.35;3.75;;;20.90;99.90;;;;;;4993224;28;20054;-63
2023/09/20 12:20:18;;;;;;;6.10;3.72;;;21.00;99.90;;;;;;5010840;28;20045;-64
2023/09/20 12:22:44;;;;;;;5.68;3.38;;;20.90;99.90;;;;;;5010216;28;20050;-62
2023/09/20 12:25:11;;;;;;;7.20;3.95;;;21.00;99.90;;;;;;5009718;28;20459;-63
2023/09/20 12:27:38;;;;;;;6.82;4.30;;;21.00;99.90;;;;;;5009999;28;20108;-64
2023/09/20 12:30:06;;;;;;;7.38;3.95;;;21.10;99.90;;;;;;5010590;28;20069;-63
2023/09/20 12:32:32;;;;;;;6.00;3.83;;;21.10;99.90;;;;;;5009975;28;20053;-65
2023/09/20 12:34:58;;;;;;;6.90;3.58;;;21.10;99.90;;;;;;5008824;28;20405;-64
2023/09/20 12:37:24;;;;;;;5.72;3.85;;;21.10;99.90;;;;;;5009666;28;20053;-67
2023/09/20 12:39:52;;;;;;;7.25;3.30;;;21.20;99.90;;;;;;5010240;28;20050;-65
2023/09/20 12:42:20;;;;;;;7.43;3.80;;;21.20;99.90;;;;;;5009996;28;20172;-65
2023/09/20 12:44:48;;;;;;;6.82;4.10;;;21.30;99.90;;;;;;5008994;28;20514;-64
2023/09/20 12:47:14;;;;;;;4.88;3.50;;;21.50;99.90;;;;;;5009510;28;20053;-64
2023/09/20 12:49:40;;;;;;;5.90;3.70;;;21.50;99.90;;;;;;5009853;28;20042;-64
2023/09/20 12:52:07;;;;;;;6.45;3.30;;;21.60;99.90;;;;;;5009951;28;20053;-64
2023/09/20 12:54:33;;;;;;;4.22;2.88;;;21.60;99.90;;;;;;5009489;28;20427;-63
2023/09/20 12:56:59;;;;;;;5.35;3.45;;;21.70;99.90;;;;;;5009989;28;20054;-63
2023/09/20 12:59:27;;;;;;;4.82;3.40;;;21.80;99.90;;;;;;5009630;28;20038;-63
2023/09/20 13:01:54;;;;;;;7.00;3.60;;;22.00;99.90;;;;;;5009918;28;20255;-64
2023/09/20 13:04:21;;;;;;;5.07;3.20;;;22.20;99.90;;;;;;5009327;28;20475;-64
2023/09/20 13:06:47;;;;;;;6.75;3.20;;;22.30;99.90;;;;;;5009480;28;20518;-64
2023/09/20 13:09:14;;;;;;;4.32;2.78;;;22.30;99.90;;;;;;5009598;28;20124;-63
2023/09/20 13:11:44;;;;;;;6.93;3.78;;;22.30;99.90;;;;;;5009685;28;20050;-63
2023/09/20 13:14:12;;;;;;;5.63;3.40;;;22.30;99.90;;;;;;5009244;28;20046;-63
2023/09/20 13:16:41;;;;;;;4.68;2.78;;;22.20;99.90;;;;;;5010427;28;20510;-63
2023/09/20 13:19:09;;;;;;;5.60;3.22;;;22.20;99.90;;;;;;5013683;28;20050;-64
2023/09/20 13:21:35;;;;;;;6.13;3.35;;;22.10;99.90;;;;;;4996322;28;20042;-64
2023/09/20 13:24:06;;;;;;;6.05;3.00;;;22.30;99.90;;;;;;5013051;28;20430;-64
2023/09/20 13:26:32;;;;;;;6.13;3.28;;;22.30;99.90;;;;;;5012673;28;20545;-64
2023/09/20 13:28:58;;;;;;;6.15;3.15;;;22.30;99.90;;;;;;5013151;28;20085;-63